createdAt,value
2023-04-15T00:02:03.609Z,52.58
2023-04-15T00:04:37.618Z,47.63
2023-04-15T00:07:18.421Z,49.83
2023-04-15T00:09:56.307Z,46.30
2023-04-15T00:12:33.229Z,46.15
2023-04-15T00:15:15.624Z,43.33
2023-04-15T00:17:56.955Z,39.92
2023-04-15T00:20:35.462Z,40.97
2023-04-15T00:23:13.944Z,40.47
2023-04-15T00:25:54.695Z,41.60
2023-04-15T00:28:32.936Z,36.75
2023-04-15T00:31:11.282Z,39.95
2023-04-15T00:33:45.142Z,37.13
2023-04-15T00:36:20.603Z,35.90
2023-04-15T00:39:04.048Z,35.95
2023-04-15T00:41:44.772Z,35.65
2023-04-15T00:44:21.919Z,38.70
2023-04-15T00:46:57.896Z,38.15
2023-04-15T00:49:40.074Z,40.58
2023-04-15T00:52:18.953Z,38.67
2023-04-15T00:54:54.246Z,45.72
2023-04-15T00:57:31.991Z,43.38
2023-04-15T01:00:08.149Z,42.53
2023-04-15T01:02:48.806Z,49.72
2023-04-15T01:05:19.739Z,48.63
2023-04-15T01:08:00.688Z,46.47
2023-04-15T01:10:42.376Z,44.97
2023-04-15T01:13:22.553Z,46.38
2023-04-15T01:15:57.026Z,46.35
2023-04-15T01:18:35.980Z,41.75
2023-04-15T01:21:14.765Z,41.80
2023-04-15T01:23:53.569Z,39.22
2023-04-15T01:26:29.046Z,37.40
2023-04-15T01:29:03.791Z,35.88
2023-04-15T01:31:50.316Z,36.80
2023-04-15T01:34:26.203Z,33.53
2023-04-15T01:37:09.892Z,31.13
2023-04-15T01:39:45.337Z,35.28
2023-04-15T01:42:23.050Z,32.92
2023-04-15T01:45:00.720Z,29.98
2023-04-15T01:47:43.050Z,33.38
2023-04-15T01:50:24.054Z,32.08
2023-04-15T01:53:07.936Z,27.90
2023-04-15T01:58:27.121Z,28.33
2023-04-15T02:01:00.412Z,30.65
2023-04-15T02:03:35.148Z,34.17
2023-04-15T02:06:10.550Z,33.50
2023-04-15T02:08:49.020Z,35.58
2023-04-15T02:11:26.350Z,33.85
2023-04-15T02:14:01.673Z,37.85
2023-04-15T02:16:42.434Z,39.90
2023-04-15T02:19:20.910Z,37.97
2023-04-15T02:22:01.682Z,35.38
2023-04-15T02:24:31.371Z,36.88
2023-04-15T02:27:14.635Z,36.55
2023-04-15T02:29:55.121Z,38.85
2023-04-15T02:32:38.465Z,40.53
2023-04-15T02:35:16.778Z,41.10
2023-04-15T02:37:57.657Z,40.40
2023-04-15T02:40:38.965Z,44.05
2023-04-15T02:43:18.328Z,41.38
2023-04-15T02:45:56.146Z,48.55
2023-04-15T02:48:33.953Z,49.47
2023-04-15T02:51:20.459Z,46.47
2023-04-15T02:54:06.298Z,43.00
2023-04-15T02:56:48.024Z,45.33
2023-04-15T02:59:20.154Z,46.78
2023-04-15T03:01:55.325Z,47.75
2023-04-15T03:04:30.251Z,48.28
2023-04-15T03:07:06.477Z,49.05
2023-04-15T03:09:47.987Z,48.38
2023-04-15T03:12:26.267Z,45.72
2023-04-15T03:15:07.004Z,45.38
2023-04-15T03:17:55.649Z,48.22
2023-04-15T03:20:36.358Z,47.33
2023-04-15T03:23:14.618Z,47.70
2023-04-15T03:25:58.997Z,49.45
2023-04-15T03:28:39.474Z,51.80
2023-04-15T03:31:20.075Z,49.75
2023-04-15T03:33:57.935Z,48.67
2023-04-15T03:36:43.227Z,45.38
2023-04-15T03:39:18.470Z,52.78
2023-04-15T03:41:56.474Z,56.70
2023-04-15T03:44:37.944Z,64.10
2023-04-15T03:47:19.376Z,68.85
2023-04-15T03:49:48.916Z,62.95
2023-04-15T03:52:27.291Z,64.47
2023-04-15T03:55:05.060Z,60.50
2023-04-15T03:57:46.679Z,64.93
2023-04-15T04:00:22.944Z,64.10
2023-04-15T04:03:01.340Z,65.80
2023-04-15T04:05:45.470Z,66.10
2023-04-15T04:08:24.783Z,67.38
2023-04-15T04:11:06.088Z,58.72
2023-04-15T04:13:44.664Z,62.38
2023-04-15T04:16:22.463Z,62.97
2023-04-15T04:19:06.415Z,58.13
2023-04-15T04:24:31.654Z,48.45
2023-04-15T04:27:16.200Z,50.80
2023-04-15T04:30:00.316Z,55.92
2023-04-15T04:32:35.896Z,60.92
2023-04-15T04:35:13.977Z,55.60
2023-04-15T04:37:54.537Z,57.10
2023-04-15T04:40:35.312Z,56.10
2023-04-15T04:43:16.008Z,54.42
2023-04-15T04:45:59.959Z,60.20
2023-04-15T04:51:18.637Z,60.88
2023-04-15T04:53:57.376Z,62.67
2023-04-15T04:56:40.005Z,68.20
2023-04-15T04:59:20.132Z,68.43
2023-04-15T05:02:03.528Z,66.80
2023-04-15T05:04:41.828Z,74.50
2023-04-15T05:07:27.076Z,74.65
2023-04-15T05:10:15.912Z,76.15
2023-04-15T05:12:58.636Z,76.32
2023-04-15T05:15:35.266Z,55.05
2023-04-15T05:18:13.576Z,45.42
2023-04-15T05:20:51.945Z,37.72
2023-04-15T05:23:24.206Z,34.60
2023-04-15T05:26:10.218Z,37.20
2023-04-15T05:28:42.992Z,40.55
2023-04-15T05:31:23.277Z,36.50
2023-04-15T05:34:11.777Z,38.67
2023-04-15T05:36:50.894Z,38.17
2023-04-15T05:39:32.741Z,38.63
2023-04-15T05:42:14.426Z,40.55
2023-04-15T05:44:58.160Z,39.30
2023-04-15T05:47:31.137Z,42.67
2023-04-15T05:50:14.685Z,40.20
2023-04-15T05:52:56.921Z,38.97
2023-04-15T05:55:38.412Z,35.92
2023-04-15T05:58:19.675Z,34.25
2023-04-15T06:00:57.422Z,34.30
2023-04-15T06:03:43.132Z,32.42
2023-04-15T06:06:21.112Z,34.22
2023-04-15T06:09:00.790Z,35.95
2023-04-15T06:11:44.212Z,39.33
2023-04-15T06:14:17.070Z,39.83
2023-04-15T06:16:58.893Z,39.40
2023-04-15T06:19:36.674Z,38.15
2023-04-15T06:22:09.578Z,37.42
2023-04-15T06:24:44.826Z,34.08
2023-04-15T06:27:23.204Z,45.60
2023-04-15T06:30:00.913Z,32.63
2023-04-15T06:32:37.003Z,32.17
2023-04-15T06:35:17.688Z,23.65
2023-04-15T06:37:55.573Z,27.23
2023-04-15T06:40:31.730Z,26.73
2023-04-15T06:43:10.431Z,27.05
2023-04-15T06:45:45.580Z,20.38
2023-04-15T06:48:28.357Z,20.35
2023-04-15T06:50:59.050Z,17.33
2023-04-15T06:53:30.901Z,16.23
2023-04-15T06:56:08.806Z,16.20
2023-04-15T06:58:48.948Z,21.67
2023-04-15T07:01:28.936Z,17.80
2023-04-15T07:04:09.516Z,19.25
2023-04-15T07:06:53.372Z,14.98
2023-04-15T07:09:31.260Z,13.23
2023-04-15T07:12:10.564Z,26.50
2023-04-15T07:14:44.850Z,13.40
2023-04-15T07:17:20.271Z,13.27
2023-04-15T07:20:00.207Z,12.27
2023-04-15T07:22:43.524Z,14.20
2023-04-15T07:25:16.148Z,15.25
2023-04-15T07:27:54.594Z,13.43
2023-04-15T07:30:29.275Z,12.13
2023-04-15T07:33:05.257Z,11.65
2023-04-15T07:35:48.977Z,10.23
2023-04-15T07:38:32.291Z,10.20
2023-04-15T07:41:16.188Z,9.07
2023-04-15T07:43:56.801Z,8.57
2023-04-15T07:46:32.333Z,8.02
2023-04-15T07:49:13.627Z,8.48
2023-04-15T07:51:54.129Z,8.57
2023-04-15T07:54:46.699Z,9.75
2023-04-15T07:57:24.813Z,8.23
2023-04-15T08:00:07.859Z,9.25
2023-04-15T08:02:51.555Z,7.72
2023-04-15T08:05:29.761Z,6.28
2023-04-15T08:08:07.262Z,6.70
2023-04-15T08:10:52.502Z,7.82
2023-04-15T08:13:36.902Z,5.72
2023-04-15T08:16:31.202Z,7.80
2023-04-15T08:21:48.653Z,4.95
2023-04-15T08:24:41.264Z,6.13
2023-04-15T08:27:19.227Z,5.38
2023-04-15T08:30:15.472Z,4.95
2023-04-15T08:32:53.335Z,8.65
2023-04-15T08:35:41.868Z,5.32
2023-04-15T08:38:28.624Z,6.53
2023-04-15T08:41:10.739Z,5.43
2023-04-15T08:43:53.045Z,6.20
2023-04-15T08:46:35.021Z,5.35
2023-04-15T08:49:22.909Z,6.35
2023-04-15T08:52:07.377Z,5.10
2023-04-15T08:54:46.957Z,6.97
2023-04-15T08:57:31.584Z,6.50
2023-04-15T09:00:19.841Z,2.58
2023-04-15T09:03:06.066Z,2.53
2023-04-15T09:05:53.355Z,2.20
2023-04-15T09:08:40.607Z,3.40
2023-04-15T09:11:20.309Z,2.50
2023-04-15T09:14:04.837Z,3.28
2023-04-15T09:17:01.482Z,2.40
2023-04-15T09:19:43.895Z,1.92
2023-04-15T09:22:28.117Z,2.60
2023-04-15T09:25:34.793Z,1.70
2023-04-15T09:28:32.251Z,1.70
2023-04-15T09:31:15.675Z,2.22
2023-04-15T09:34:04.909Z,2.33
2023-04-15T09:36:58.503Z,2.85
2023-04-15T09:39:52.129Z,2.33
2023-04-15T09:42:57.718Z,2.40
2023-04-15T09:45:40.263Z,2.17
2023-04-15T09:48:26.536Z,2.67
2023-04-15T09:51:12.492Z,1.60
2023-04-15T09:54:00.566Z,2.15
2023-04-15T09:56:44.162Z,6.22
2023-04-15T09:59:26.943Z,2.33
2023-04-15T10:02:10.659Z,3.10
2023-04-15T10:05:03.099Z,1.60
2023-04-15T10:07:42.961Z,1.40
2023-04-15T10:10:24.295Z,2.67
2023-04-15T10:13:12.682Z,1.80
2023-04-15T10:16:03.551Z,2.25
2023-04-15T10:19:04.777Z,1.83
2023-04-15T10:21:51.533Z,1.33
2023-04-15T10:24:34.362Z,2.00
2023-04-15T10:27:12.506Z,2.13
2023-04-15T10:30:03.077Z,1.27
2023-04-15T10:32:44.911Z,5.95
2023-04-15T10:35:27.230Z,2.45
2023-04-15T10:38:28.869Z,1.67
2023-04-15T10:41:28.216Z,5.07
2023-04-15T10:44:14.709Z,1.30
2023-04-15T10:46:58.336Z,2.05
2023-04-15T10:49:57.286Z,1.17
2023-04-15T10:52:42.700Z,1.45
2023-04-15T10:55:31.568Z,1.02
2023-04-15T10:58:12.160Z,1.40
2023-04-15T11:00:59.009Z,1.63
2023-04-15T11:03:48.127Z,1.00
2023-04-15T11:06:51.379Z,1.10
2023-04-15T11:09:39.727Z,2.60
2023-04-15T11:12:29.219Z,1.15
2023-04-15T11:15:48.445Z,1.30
2023-04-15T11:18:35.197Z,2.95
2023-04-15T11:21:18.014Z,5.72
2023-04-15T11:24:03.990Z,5.57
2023-04-15T11:26:38.234Z,2.42
2023-04-15T11:29:23.286Z,3.00
2023-04-15T11:32:12.167Z,2.47
2023-04-15T11:34:51.678Z,3.45
2023-04-15T11:37:38.095Z,2.50
2023-04-15T11:40:23.077Z,2.05
2023-04-15T11:43:15.957Z,3.80
2023-04-15T11:46:37.703Z,1.52
2023-04-15T11:49:47.636Z,1.95
2023-04-15T11:52:35.086Z,2.17
2023-04-15T11:55:18.820Z,2.28
2023-04-15T11:58:16.735Z,1.35
2023-04-15T12:00:59.321Z,1.65
2023-04-15T12:03:51.229Z,1.50
2023-04-15T12:06:42.604Z,1.58
2023-04-15T12:09:26.644Z,1.83
2023-04-15T12:12:07.220Z,2.75
2023-04-15T12:15:07.759Z,1.47
2023-04-15T12:17:51.883Z,2.00
2023-04-15T12:21:09.263Z,2.13
2023-04-15T12:24:06.601Z,1.60
2023-04-15T12:27:04.962Z,1.80
2023-04-15T12:29:44.777Z,2.38
2023-04-15T12:32:32.021Z,1.80
2023-04-15T12:35:23.903Z,1.77
2023-04-15T12:38:10.261Z,1.42
2023-04-15T12:41:04.206Z,1.25
2023-04-15T12:43:49.186Z,1.73
2023-04-15T12:46:47.557Z,0.88
2023-04-15T12:49:44.157Z,1.13
2023-04-15T12:52:32.058Z,1.90
2023-04-15T12:55:16.206Z,1.00
2023-04-15T12:58:05.208Z,2.22
2023-04-15T13:00:50.082Z,0.88
2023-04-15T13:03:36.200Z,1.25
2023-04-15T13:06:46.521Z,2.25
2023-04-15T13:09:21.741Z,1.65
2023-04-15T13:12:14.656Z,1.00
2023-04-15T13:15:05.609Z,2.22
2023-04-15T13:17:55.901Z,1.40
2023-04-15T13:20:46.587Z,2.15
2023-04-15T13:23:38.930Z,3.03
2023-04-15T13:26:22.877Z,1.80
2023-04-15T13:29:18.969Z,1.92
2023-04-15T13:32:02.696Z,1.95
2023-04-15T13:34:49.585Z,1.75
2023-04-15T13:37:37.417Z,3.47
2023-04-15T13:40:21.295Z,8.52
2023-04-15T13:43:13.409Z,4.75
2023-04-15T13:45:59.648Z,4.55
2023-04-15T13:48:55.720Z,2.60
2023-04-15T13:51:36.423Z,3.00
2023-04-15T13:54:15.236Z,2.72
2023-04-15T13:56:58.884Z,4.03
2023-04-15T13:59:45.200Z,2.75
2023-04-15T14:02:34.954Z,19.40
2023-04-15T14:05:23.827Z,3.00
2023-04-15T14:08:10.873Z,11.25
2023-04-15T14:11:00.896Z,4.03
2023-04-15T14:13:41.612Z,3.85
2023-04-15T14:16:28.449Z,51.92
2023-04-15T14:19:14.796Z,16.70
2023-04-15T14:21:55.948Z,8.73
2023-04-15T14:24:55.726Z,8.77
2023-04-15T14:27:42.790Z,9.90
2023-04-15T14:30:38.606Z,8.60
2023-04-15T14:33:30.666Z,11.02
2023-04-15T14:36:26.121Z,18.35
2023-04-15T14:39:09.645Z,14.73
2023-04-15T14:41:58.576Z,20.88
2023-04-15T14:48:00.439Z,7.00
2023-04-15T14:51:07.967Z,5.80
2023-04-15T14:54:24.041Z,5.45
2023-04-15T14:57:12.655Z,19.63
2023-04-15T14:59:57.257Z,3.83
2023-04-15T15:02:58.630Z,7.07
2023-04-15T15:05:47.028Z,5.73
2023-04-15T15:08:42.431Z,4.53
2023-04-15T15:11:24.214Z,13.27
2023-04-15T15:14:13.427Z,8.18
2023-04-15T15:17:01.675Z,10.93
2023-04-15T15:19:50.924Z,11.30
2023-04-15T15:22:34.294Z,7.53
2023-04-15T15:25:30.031Z,10.32
2023-04-15T15:28:18.268Z,4.78
2023-04-15T15:31:05.593Z,13.52
2023-04-15T15:33:57.941Z,7.13
2023-04-15T15:36:57.270Z,8.55
2023-04-15T15:39:41.106Z,6.82
2023-04-15T15:42:25.885Z,4.25
2023-04-15T15:45:19.504Z,16.42
2023-04-15T15:51:04.946Z,6.93
2023-04-15T15:54:01.351Z,3.38
2023-04-15T15:56:42.319Z,10.15
2023-04-15T15:59:26.739Z,5.00
2023-04-15T16:02:15.521Z,10.75
2023-04-15T16:05:00.984Z,5.63
2023-04-15T16:07:46.633Z,3.72
2023-04-15T16:10:50.266Z,4.68
2023-04-15T16:13:37.800Z,4.80
2023-04-15T16:16:31.915Z,5.47
2023-04-15T16:19:18.747Z,3.03
2023-04-15T16:21:59.453Z,3.97
2023-04-15T16:24:50.267Z,2.42
2023-04-15T16:27:54.236Z,5.93
2023-04-15T16:30:50.272Z,5.57
2023-04-15T16:33:34.579Z,2.35
2023-04-15T16:36:32.274Z,5.20
2023-04-15T16:39:15.516Z,3.20
2023-04-15T16:42:00.514Z,2.33
2023-04-15T16:44:51.885Z,2.28
2023-04-15T16:47:36.225Z,2.95
2023-04-15T16:50:20.088Z,10.13
2023-04-15T16:53:03.770Z,2.95
2023-04-15T16:55:51.143Z,2.58
2023-04-15T16:58:35.369Z,2.35
2023-04-15T17:01:17.029Z,4.35
2023-04-15T17:03:50.017Z,3.45
2023-04-15T17:06:31.314Z,6.55
2023-04-15T17:09:18.677Z,4.80
2023-04-15T17:11:56.591Z,5.15
2023-04-15T17:14:42.026Z,5.65
2023-04-15T17:17:20.893Z,3.05
2023-04-15T17:20:08.375Z,2.58
2023-04-15T17:22:46.613Z,2.47
2023-04-15T17:25:38.886Z,2.17
2023-04-15T17:28:22.935Z,2.38
2023-04-15T17:31:12.358Z,2.88
2023-04-15T17:34:10.638Z,4.53
2023-04-15T17:36:54.597Z,3.88
2023-04-15T17:39:37.134Z,3.70
2023-04-15T17:42:23.147Z,4.35
2023-04-15T17:45:17.504Z,6.38
2023-04-15T17:48:06.131Z,5.85
2023-04-15T17:50:48.895Z,7.18
2023-04-15T17:53:47.785Z,7.75
2023-04-15T17:56:34.715Z,8.23
2023-04-15T17:59:19.837Z,8.43
2023-04-15T18:02:16.590Z,8.05
2023-04-15T18:05:00.929Z,7.65
2023-04-15T18:07:44.802Z,6.05
2023-04-15T18:10:43.880Z,5.53
2023-04-15T18:13:29.566Z,5.85
2023-04-15T18:16:05.924Z,5.47
2023-04-15T18:18:52.497Z,6.13
2023-04-15T18:21:36.380Z,5.68
2023-04-15T18:24:52.551Z,6.68
2023-04-15T18:27:59.200Z,6.00
2023-04-15T18:31:21.997Z,6.53
2023-04-15T18:34:04.092Z,5.80
2023-04-15T18:37:04.137Z,7.68
2023-04-15T18:39:50.553Z,6.50
2023-04-15T18:45:05.737Z,7.05
2023-04-15T18:47:59.967Z,9.52
2023-04-15T18:50:49.258Z,7.72
2023-04-15T18:53:38.762Z,11.80
2023-04-15T18:56:18.563Z,8.95
2023-04-15T18:59:09.926Z,8.13
2023-04-15T19:02:07.547Z,8.52
2023-04-15T19:04:53.131Z,8.05
2023-04-15T19:07:36.883Z,8.75
2023-04-15T19:10:23.654Z,15.75
2023-04-15T19:13:05.422Z,19.50
2023-04-15T19:15:57.850Z,23.67
2023-04-15T19:18:34.721Z,35.28
2023-04-15T19:21:19.895Z,24.55
2023-04-15T19:24:06.868Z,15.82
2023-04-15T19:29:41.925Z,17.48
2023-04-15T19:32:26.930Z,16.98
2023-04-15T19:35:24.702Z,23.23
2023-04-15T19:38:01.743Z,28.92
2023-04-15T19:40:43.892Z,28.95
2023-04-15T19:43:20.123Z,21.55
2023-04-15T19:46:07.293Z,25.92
2023-04-15T19:48:54.275Z,29.77
2023-04-15T19:54:22.973Z,86.20
2023-04-15T19:57:02.403Z,94.18
2023-04-15T19:59:54.437Z,74.43
2023-04-15T20:02:36.346Z,72.72
2023-04-15T20:05:20.491Z,64.18
2023-04-15T20:08:06.039Z,32.50
2023-04-15T20:10:45.007Z,27.00
2023-04-15T20:13:27.980Z,28.88
2023-04-15T20:16:15.583Z,23.15
2023-04-15T20:18:56.489Z,24.58
2023-04-15T20:21:42.718Z,26.35
2023-04-15T20:24:24.436Z,26.83
2023-04-15T20:27:06.692Z,27.27
2023-04-15T20:29:51.645Z,29.35
2023-04-15T20:32:35.906Z,29.00
2023-04-15T20:35:21.227Z,27.63
2023-04-15T20:38:05.759Z,28.45
2023-04-15T20:40:43.498Z,29.30
2023-04-15T20:43:26.215Z,28.70
2023-04-15T20:46:17.750Z,28.90
2023-04-15T20:49:05.192Z,39.60
2023-04-15T20:51:48.876Z,38.00
2023-04-15T20:54:29.924Z,37.42
2023-04-15T20:57:13.617Z,37.60
2023-04-15T20:59:59.528Z,40.00
2023-04-15T21:02:47.928Z,37.42
2023-04-15T21:05:29.159Z,43.58
2023-04-15T21:08:12.983Z,48.28
2023-04-15T21:10:59.171Z,48.97
2023-04-15T21:13:46.349Z,47.70
2023-04-15T21:16:32.120Z,54.25
2023-04-15T21:19:11.115Z,49.78
2023-04-15T21:21:51.847Z,48.80
2023-04-15T21:24:40.066Z,45.55
2023-04-15T21:27:29.320Z,43.58
2023-04-15T21:30:12.629Z,42.72
2023-04-15T21:32:56.250Z,43.92
2023-04-15T21:35:40.029Z,42.08
2023-04-15T21:38:22.689Z,40.78
2023-04-15T21:41:12.754Z,41.03
2023-04-15T21:43:54.055Z,43.90
2023-04-15T21:46:46.138Z,39.00
2023-04-15T21:49:21.015Z,40.28
2023-04-15T21:52:06.016Z,35.17
2023-04-15T21:54:46.154Z,33.40
2023-04-15T21:57:34.307Z,30.48
2023-04-15T22:00:20.422Z,29.80
2023-04-15T22:03:09.613Z,29.90
2023-04-15T22:05:58.630Z,29.08
2023-04-15T22:08:41.744Z,26.83
2023-04-15T22:14:22.367Z,24.50
2023-04-15T22:17:03.233Z,25.08
2023-04-15T22:19:42.086Z,29.27
2023-04-15T22:22:19.846Z,26.63
2023-04-15T22:25:12.279Z,28.27
2023-04-15T22:27:54.043Z,32.53
2023-04-15T22:30:37.748Z,31.73
2023-04-15T22:33:18.481Z,33.92
2023-04-15T22:36:10.218Z,32.85
2023-04-15T22:38:54.745Z,37.15
2023-04-15T22:41:32.338Z,35.20
2023-04-15T22:44:15.456Z,39.55
2023-04-15T22:47:01.887Z,34.67
2023-04-15T22:49:37.022Z,34.42
2023-04-15T22:52:20.156Z,34.88
2023-04-15T22:55:02.437Z,36.55
2023-04-15T22:57:46.895Z,36.25
2023-04-15T23:00:28.435Z,38.30
2023-04-15T23:03:04.218Z,37.58
2023-04-15T23:05:41.287Z,36.22
2023-04-15T23:08:27.684Z,32.83
2023-04-15T23:11:08.516Z,35.90
2023-04-15T23:13:56.647Z,35.40
2023-04-15T23:16:43.685Z,36.60
2023-04-15T23:19:21.637Z,35.42
2023-04-15T23:22:12.261Z,33.67
2023-04-15T23:24:53.195Z,35.28
2023-04-15T23:27:39.848Z,33.33
2023-04-15T23:30:19.820Z,32.58
2023-04-15T23:33:08.565Z,31.80
2023-04-15T23:35:53.105Z,31.13
2023-04-15T23:38:33.764Z,32.35
2023-04-15T23:41:11.937Z,33.22
2023-04-15T23:43:52.784Z,34.03
2023-04-15T23:46:33.821Z,32.25
2023-04-15T23:49:14.591Z,34.58
2023-04-15T23:51:55.253Z,35.78
2023-04-15T23:54:33.830Z,38.20
2023-04-15T23:57:12.024Z,36.08
2023-04-15T23:59:58.864Z,38.78
